createdAt,value
2018-08-06T00:00:58.013Z,13.63
2018-08-06T00:03:25.088Z,13.58
2018-08-06T00:05:52.788Z,13.55
2018-08-06T00:08:20.405Z,13.54
2018-08-06T00:10:48.257Z,13.52
2018-08-06T00:13:15.829Z,13.46
2018-08-06T00:15:43.550Z,13.41
2018-08-06T00:18:11.261Z,13.38
2018-08-06T00:20:38.935Z,13.40
2018-08-06T00:23:06.506Z,13.41
2018-08-06T00:25:34.170Z,13.44
2018-08-06T00:28:01.838Z,13.44
2018-08-06T00:30:29.372Z,13.47
2018-08-06T00:32:57.064Z,13.47
2018-08-06T00:35:24.604Z,13.50
2018-08-06T00:37:52.255Z,13.51
2018-08-06T00:40:20.796Z,13.52
2018-08-06T00:42:48.796Z,13.53
2018-08-06T00:45:17.992Z,13.53
2018-08-06T00:47:46.024Z,13.53
2018-08-06T00:50:13.753Z,13.54
2018-08-06T00:52:41.325Z,13.55
2018-08-06T00:55:11.733Z,13.55
2018-08-06T00:57:38.923Z,13.58
2018-08-06T01:00:06.884Z,13.59
2018-08-06T01:02:34.043Z,13.59
2018-08-06T01:05:01.000Z,13.61
2018-08-06T01:07:28.663Z,13.64
2018-08-06T01:09:56.476Z,13.66
2018-08-06T01:12:24.057Z,13.67
2018-08-06T01:14:51.631Z,13.70
2018-08-06T01:17:19.624Z,13.73
2018-08-06T01:19:47.398Z,13.76
2018-08-06T01:22:14.919Z,13.77
2018-08-06T01:24:42.751Z,13.81
2018-08-06T01:27:10.370Z,13.84
2018-08-06T01:29:37.976Z,13.85
2018-08-06T01:32:05.645Z,13.88
2018-08-06T01:34:33.189Z,13.91
2018-08-06T01:37:00.749Z,13.93
2018-08-06T01:39:28.514Z,13.94
2018-08-06T01:41:56.106Z,13.98
2018-08-06T01:44:23.801Z,14.00
2018-08-06T01:46:51.595Z,14.00
2018-08-06T01:49:19.155Z,14.00
2018-08-06T01:51:46.738Z,14.01
2018-08-06T01:54:14.482Z,14.02
2018-08-06T01:56:42.024Z,14.02
2018-08-06T01:59:09.588Z,14.04
2018-08-06T02:01:37.272Z,14.05
2018-08-06T02:04:05.012Z,14.07
2018-08-06T02:06:32.574Z,14.09
2018-08-06T02:09:00.430Z,14.11
2018-08-06T02:11:27.988Z,14.12
2018-08-06T02:13:55.571Z,14.12
2018-08-06T02:16:22.720Z,14.14
2018-08-06T02:18:50.506Z,14.15
2018-08-06T02:21:18.160Z,14.15
2018-08-06T02:23:45.227Z,14.16
2018-08-06T02:26:12.796Z,14.18
2018-08-06T02:28:39.781Z,14.20
2018-08-06T02:31:06.952Z,14.20
2018-08-06T02:33:33.910Z,14.22
2018-08-06T02:36:00.830Z,14.25
2018-08-06T02:38:28.562Z,14.26
2018-08-06T02:40:56.148Z,14.28
2018-08-06T02:43:23.803Z,14.27
2018-08-06T02:45:51.542Z,14.27
2018-08-06T02:48:19.245Z,14.27
2018-08-06T02:50:46.870Z,14.29
2018-08-06T02:53:14.766Z,14.30
2018-08-06T02:55:42.347Z,14.31
2018-08-06T02:58:09.950Z,14.33
2018-08-06T03:00:37.659Z,14.34
2018-08-06T03:03:05.283Z,14.34
2018-08-06T03:05:32.854Z,14.34
2018-08-06T03:08:00.641Z,14.34
2018-08-06T03:10:28.222Z,14.34
2018-08-06T03:12:55.880Z,14.33
2018-08-06T03:15:22.996Z,14.33
2018-08-06T03:17:50.663Z,14.33
2018-08-06T03:20:18.509Z,14.33
2018-08-06T03:22:46.305Z,14.33
2018-08-06T03:25:15.062Z,14.31
2018-08-06T03:27:43.370Z,14.30
2018-08-06T03:30:13.074Z,14.30
2018-08-06T03:32:40.912Z,14.29
2018-08-06T03:35:09.601Z,14.30
2018-08-06T03:37:37.452Z,14.33
2018-08-06T03:40:04.488Z,14.34
2018-08-06T03:42:32.057Z,14.33
2018-08-06T03:44:59.880Z,14.32
2018-08-06T03:47:27.510Z,14.31
2018-08-06T03:49:55.034Z,14.31
2018-08-06T03:52:22.943Z,14.29
2018-08-06T03:54:50.550Z,14.29
2018-08-06T03:57:18.326Z,14.29
2018-08-06T03:59:46.098Z,14.30
2018-08-06T04:02:13.684Z,14.31
2018-08-06T04:04:41.202Z,14.32
2018-08-06T04:07:08.981Z,14.32
2018-08-06T04:09:36.551Z,14.33
2018-08-06T04:12:04.172Z,14.34
2018-08-06T04:14:31.969Z,14.36
2018-08-06T04:17:00.104Z,14.36
2018-08-06T04:19:27.652Z,14.36
2018-08-06T04:21:55.541Z,14.41
2018-08-06T04:24:22.520Z,14.42
2018-08-06T04:26:49.472Z,14.41
2018-08-06T04:29:16.590Z,14.41
2018-08-06T04:31:43.561Z,14.40
2018-08-06T04:34:10.524Z,14.39
2018-08-06T04:36:37.633Z,14.40
2018-08-06T04:39:05.639Z,14.39
2018-08-06T04:41:33.240Z,14.39
2018-08-06T04:44:00.926Z,14.39
2018-08-06T04:46:27.908Z,14.36
2018-08-06T04:48:54.862Z,14.37
2018-08-06T04:51:22.034Z,14.37
2018-08-06T04:53:49.171Z,14.37
2018-08-06T04:56:16.116Z,14.38
2018-08-06T04:58:43.257Z,14.40
2018-08-06T05:01:10.300Z,14.42
2018-08-06T05:03:37.249Z,14.44
2018-08-06T05:06:04.449Z,14.46
2018-08-06T05:08:31.382Z,14.48
2018-08-06T05:10:58.344Z,14.50
2018-08-06T05:13:25.343Z,14.52
2018-08-06T05:15:52.275Z,14.52
2018-08-06T05:18:19.225Z,14.52
2018-08-06T05:20:46.371Z,14.52
2018-08-06T05:23:13.491Z,14.52
2018-08-06T05:25:40.426Z,14.52
2018-08-06T05:28:07.772Z,14.53
2018-08-06T05:30:34.860Z,14.54
2018-08-06T05:33:01.890Z,14.54
2018-08-06T05:35:29.051Z,14.54
2018-08-06T05:37:56.796Z,14.54
2018-08-06T05:40:23.836Z,14.54
2018-08-06T05:42:51.043Z,14.54
2018-08-06T05:45:18.100Z,14.55
2018-08-06T05:47:45.149Z,14.54
2018-08-06T05:50:13.085Z,14.54
2018-08-06T05:52:40.192Z,14.54
2018-08-06T05:55:08.169Z,14.57
2018-08-06T05:57:35.363Z,14.60
2018-08-06T06:00:02.414Z,14.63
2018-08-06T06:02:30.174Z,14.67
2018-08-06T06:04:58.059Z,14.69
2018-08-06T06:07:25.717Z,14.73
2018-08-06T06:09:53.402Z,14.77
2018-08-06T06:12:21.244Z,14.80
2018-08-06T06:14:48.922Z,14.84
2018-08-06T06:17:16.570Z,14.86
2018-08-06T06:19:44.453Z,14.88
2018-08-06T06:22:12.142Z,14.91
2018-08-06T06:24:40.053Z,14.95
2018-08-06T06:27:07.867Z,15.00
2018-08-06T06:29:35.504Z,15.07
2018-08-06T06:32:03.129Z,15.14
2018-08-06T06:34:31.030Z,15.19
2018-08-06T06:36:58.609Z,15.23
2018-08-06T06:39:26.205Z,15.26
2018-08-06T06:41:54.021Z,15.33
2018-08-06T06:44:21.694Z,15.36
2018-08-06T06:46:49.283Z,15.38
2018-08-06T06:49:17.095Z,15.39
2018-08-06T06:51:44.659Z,15.41
2018-08-06T06:54:13.243Z,15.43
2018-08-06T06:56:41.013Z,15.45
2018-08-06T06:59:08.047Z,15.50
2018-08-06T07:01:35.744Z,15.56
2018-08-06T07:04:03.662Z,15.63
2018-08-06T07:06:31.426Z,15.67
2018-08-06T07:08:59.021Z,15.72
2018-08-06T07:11:26.869Z,15.75
2018-08-06T07:13:54.583Z,15.79
2018-08-06T07:16:22.195Z,15.81
2018-08-06T07:18:50.001Z,15.82
2018-08-06T07:21:17.784Z,15.86
2018-08-06T07:23:45.349Z,15.86
2018-08-06T07:26:13.379Z,15.90
2018-08-06T07:28:40.992Z,15.94
2018-08-06T07:31:08.608Z,15.98
2018-08-06T07:33:36.411Z,15.99
2018-08-06T07:36:04.251Z,16.03
2018-08-06T07:38:31.956Z,16.10
2018-08-06T07:40:59.836Z,16.16
2018-08-06T07:43:27.573Z,16.23
2018-08-06T07:45:55.189Z,16.29
2018-08-06T07:48:22.891Z,16.33
2018-08-06T07:50:50.498Z,16.33
2018-08-06T07:53:18.190Z,16.36
2018-08-06T07:55:45.954Z,16.38
2018-08-06T07:58:13.572Z,16.38
2018-08-06T08:00:41.160Z,16.43
2018-08-06T08:03:09.110Z,16.48
2018-08-06T08:05:36.836Z,16.53
2018-08-06T08:08:04.554Z,16.59
2018-08-06T08:10:32.386Z,16.62
2018-08-06T08:13:00.086Z,16.69
2018-08-06T08:15:27.827Z,16.74
2018-08-06T08:17:56.746Z,16.77
2018-08-06T08:20:24.799Z,16.79
2018-08-06T08:22:52.464Z,16.82
2018-08-06T08:25:21.246Z,16.82
2018-08-06T08:27:49.151Z,16.83
2018-08-06T08:30:17.442Z,16.86
2018-08-06T08:32:45.425Z,16.90
2018-08-06T08:35:13.800Z,16.98
2018-08-06T08:37:41.617Z,17.03
2018-08-06T08:40:11.609Z,17.12
2018-08-06T08:42:39.298Z,17.07
2018-08-06T08:45:09.442Z,17.21
2018-08-06T08:47:37.306Z,17.23
2018-08-06T08:50:06.089Z,17.23
2018-08-06T08:52:33.777Z,17.24
2018-08-06T08:55:01.593Z,17.22
2018-08-06T08:57:29.244Z,17.23
2018-08-06T08:59:56.829Z,17.20
2018-08-06T09:02:24.525Z,17.19
2018-08-06T09:04:52.370Z,17.14
2018-08-06T09:07:20.077Z,17.07
2018-08-06T09:09:47.904Z,17.03
2018-08-06T09:12:15.583Z,17.02
2018-08-06T09:14:43.175Z,17.02
2018-08-06T09:17:10.982Z,17.04
2018-08-06T09:19:38.587Z,17.06
2018-08-06T09:22:06.477Z,17.09
2018-08-06T09:24:34.235Z,17.12
2018-08-06T09:27:01.862Z,17.12
2018-08-06T09:29:29.673Z,17.12
2018-08-06T09:31:57.584Z,17.12
2018-08-06T09:34:25.293Z,17.11
2018-08-06T09:36:52.923Z,17.12
2018-08-06T09:39:20.799Z,17.13
2018-08-06T09:41:48.417Z,17.16
2018-08-06T09:44:16.072Z,17.15
2018-08-06T09:46:43.944Z,17.16
2018-08-06T09:49:11.582Z,17.19
2018-08-06T09:51:39.240Z,17.21
2018-08-06T09:54:07.564Z,17.27
2018-08-06T09:56:35.205Z,17.37
2018-08-06T09:59:03.951Z,17.53
2018-08-06T10:01:37.079Z,17.77
2018-08-06T10:04:04.922Z,18.00
2018-08-06T10:06:32.689Z,18.17
2018-08-06T10:09:00.161Z,18.30
2018-08-06T10:11:27.991Z,18.40
2018-08-06T10:13:55.627Z,18.52
2018-08-06T10:16:23.384Z,18.66
2018-08-06T10:18:51.380Z,18.74
2018-08-06T10:21:18.936Z,18.77
2018-08-06T10:23:46.595Z,18.79
2018-08-06T10:26:14.225Z,18.79
2018-08-06T10:28:41.801Z,18.76
2018-08-06T10:31:09.602Z,18.73
2018-08-06T10:33:37.492Z,18.69
2018-08-06T10:36:05.158Z,18.64
2018-08-06T10:38:32.817Z,18.62
2018-08-06T10:41:00.556Z,18.61
2018-08-06T10:43:28.185Z,18.61
2018-08-06T10:45:55.815Z,18.52
2018-08-06T10:48:23.751Z,18.66
2018-08-06T10:50:51.414Z,18.74
2018-08-06T10:53:19.096Z,18.90
2018-08-06T10:55:46.895Z,19.05
2018-08-06T10:58:14.572Z,19.15
2018-08-06T11:00:42.434Z,19.21
2018-08-06T11:03:10.194Z,19.28
2018-08-06T11:05:37.870Z,19.44
2018-08-06T11:08:05.520Z,19.55
2018-08-06T11:10:33.351Z,19.65
2018-08-06T11:13:00.982Z,19.76
2018-08-06T11:15:28.639Z,19.89
2018-08-06T11:17:56.625Z,20.08
2018-08-06T11:20:24.404Z,20.29
2018-08-06T11:22:52.168Z,20.46
2018-08-06T11:25:21.033Z,20.57
2018-08-06T11:27:48.884Z,20.67
2018-08-06T11:30:18.305Z,20.78
2018-08-06T11:32:46.800Z,20.94
2018-08-06T11:35:14.938Z,21.06
2018-08-06T11:37:42.623Z,21.07
2018-08-06T11:40:11.400Z,21.08
2018-08-06T11:42:39.674Z,21.07
2018-08-06T11:45:10.129Z,21.08
2018-08-06T11:47:37.865Z,21.06
2018-08-06T11:50:05.983Z,21.07
2018-08-06T11:52:33.600Z,21.08
2018-08-06T11:55:01.374Z,21.05
2018-08-06T11:57:29.028Z,21.06
2018-08-06T11:59:56.673Z,21.19
2018-08-06T12:02:24.622Z,21.42
2018-08-06T12:04:52.278Z,21.66
2018-08-06T12:07:20.088Z,21.82
2018-08-06T12:09:47.900Z,21.87
2018-08-06T12:12:15.574Z,21.87
2018-08-06T12:14:43.235Z,21.91
2018-08-06T12:17:11.177Z,21.94
2018-08-06T12:19:38.769Z,21.98
2018-08-06T12:22:06.479Z,22.07
2018-08-06T12:24:34.430Z,22.18
2018-08-06T12:27:02.017Z,22.29
2018-08-06T12:29:29.663Z,22.38
2018-08-06T12:31:57.731Z,22.55
2018-08-06T12:34:25.476Z,22.70
2018-08-06T12:36:53.003Z,22.77
2018-08-06T12:39:20.874Z,22.76
2018-08-06T12:41:48.546Z,22.75
2018-08-06T12:44:16.206Z,22.70
2018-08-06T12:46:44.274Z,22.62
2018-08-06T12:49:11.959Z,22.60
2018-08-06T12:51:39.729Z,22.61
2018-08-06T12:54:08.045Z,22.69
2018-08-06T12:56:35.672Z,22.72
2018-08-06T12:59:03.402Z,22.64
2018-08-06T13:01:31.320Z,22.58
2018-08-06T13:03:59.032Z,22.54
2018-08-06T13:06:26.720Z,22.49
2018-08-06T13:08:54.556Z,22.49
2018-08-06T13:11:22.152Z,22.58
2018-08-06T13:13:49.819Z,22.64
2018-08-06T13:16:17.791Z,22.66
2018-08-06T13:18:45.427Z,22.67
2018-08-06T13:21:13.099Z,22.76
2018-08-06T13:23:40.984Z,22.81
2018-08-06T13:26:08.710Z,22.83
2018-08-06T13:28:36.381Z,22.80
2018-08-06T13:31:04.168Z,22.73
2018-08-06T13:33:31.804Z,22.68
2018-08-06T13:35:59.587Z,22.68
2018-08-06T13:38:27.471Z,22.67
2018-08-06T13:40:55.194Z,22.50
2018-08-06T13:43:22.810Z,22.25
2018-08-06T13:45:50.577Z,22.05
2018-08-06T13:48:18.316Z,21.85
2018-08-06T13:50:45.999Z,21.69
2018-08-06T13:53:16.889Z,21.56
2018-08-06T13:55:44.614Z,21.47
2018-08-06T13:58:12.309Z,21.45
2018-08-06T14:00:40.243Z,21.47
2018-08-06T14:03:07.952Z,21.53
2018-08-06T14:05:35.632Z,21.57
2018-08-06T14:08:04.144Z,21.64
2018-08-06T14:10:31.835Z,21.68
2018-08-06T14:12:59.429Z,21.71
2018-08-06T14:15:27.250Z,21.69
2018-08-06T14:17:54.846Z,21.65
2018-08-06T14:20:22.506Z,21.63
2018-08-06T14:22:50.391Z,21.59
2018-08-06T14:25:18.024Z,21.55
2018-08-06T14:27:45.695Z,21.52
2018-08-06T14:30:14.650Z,21.46
2018-08-06T14:32:43.187Z,21.43
2018-08-06T14:35:11.164Z,21.41
2018-08-06T14:37:38.989Z,21.39
2018-08-06T14:40:13.090Z,21.38
2018-08-06T14:42:41.140Z,21.42
2018-08-06T14:45:09.598Z,21.40
2018-08-06T14:47:37.594Z,21.32
2018-08-06T14:50:07.467Z,21.24
2018-08-06T14:52:35.193Z,21.13
2018-08-06T14:55:02.927Z,21.01
2018-08-06T14:57:35.353Z,20.92
2018-08-06T15:00:04.960Z,20.84
2018-08-06T15:02:32.873Z,20.75
2018-08-06T15:05:00.503Z,20.67
2018-08-06T15:07:28.164Z,20.60
2018-08-06T15:09:55.989Z,20.53
2018-08-06T15:12:23.600Z,20.47
2018-08-06T15:14:51.215Z,20.40
2018-08-06T15:17:19.105Z,20.33
2018-08-06T15:19:46.828Z,20.29
2018-08-06T15:22:14.461Z,20.25
2018-08-06T15:24:42.353Z,20.24
2018-08-06T15:27:10.019Z,20.24
2018-08-06T15:29:37.701Z,20.20
2018-08-06T15:32:05.659Z,20.21
2018-08-06T15:34:33.238Z,20.23
2018-08-06T15:37:01.024Z,20.28
2018-08-06T15:39:29.192Z,20.36
2018-08-06T15:41:56.825Z,20.41
2018-08-06T15:44:24.455Z,20.44
2018-08-06T15:46:52.304Z,20.47
2018-08-06T15:49:20.015Z,20.54
2018-08-06T15:51:47.667Z,20.61
2018-08-06T15:54:15.456Z,20.68
2018-08-06T15:56:43.189Z,20.73
2018-08-06T15:59:10.801Z,20.79
2018-08-06T16:01:38.563Z,20.90
2018-08-06T16:04:06.255Z,20.96
2018-08-06T16:06:33.905Z,21.01
2018-08-06T16:09:01.745Z,21.00
2018-08-06T16:11:29.418Z,20.99
2018-08-06T16:13:57.041Z,20.95
2018-08-06T16:16:24.888Z,20.92
2018-08-06T16:18:52.555Z,20.89
2018-08-06T16:21:20.188Z,20.87
2018-08-06T16:23:47.933Z,20.87
2018-08-06T16:26:15.600Z,20.86
2018-08-06T16:28:43.335Z,20.84
2018-08-06T16:31:11.164Z,20.83
2018-08-06T16:33:38.822Z,20.79
2018-08-06T16:36:06.642Z,20.77
2018-08-06T16:38:34.437Z,20.74
2018-08-06T16:41:02.199Z,20.71
2018-08-06T16:43:29.868Z,20.69
2018-08-06T16:45:57.599Z,20.69
2018-08-06T16:48:25.413Z,20.67
2018-08-06T16:50:53.129Z,20.64
2018-08-06T16:53:20.991Z,20.62
2018-08-06T16:55:48.930Z,20.61
2018-08-06T16:58:16.787Z,20.62
2018-08-06T17:00:51.240Z,20.62
2018-08-06T17:03:18.825Z,20.63
2018-08-06T17:05:46.412Z,20.63
2018-08-06T17:08:14.420Z,20.65
2018-08-06T17:10:42.230Z,20.63
2018-08-06T17:13:09.867Z,20.65
2018-08-06T17:15:37.845Z,20.65
2018-08-06T17:18:05.537Z,20.65
2018-08-06T17:20:33.291Z,20.66
2018-08-06T17:23:01.287Z,20.65
2018-08-06T17:25:29.099Z,20.65
2018-08-06T17:27:56.794Z,20.63
2018-08-06T17:30:24.557Z,20.63
2018-08-06T17:32:52.296Z,20.62
2018-08-06T17:35:20.030Z,20.61
2018-08-06T17:37:48.364Z,20.61
2018-08-06T17:40:17.507Z,20.60
2018-08-06T17:42:45.623Z,20.59
2018-08-06T17:45:16.469Z,20.62
2018-08-06T17:47:44.363Z,20.64
2018-08-06T17:50:14.649Z,20.64
2018-08-06T17:52:50.013Z,20.64
2018-08-06T17:55:18.796Z,20.63
2018-08-06T17:57:46.812Z,20.65
2018-08-06T18:00:15.033Z,20.65
2018-08-06T18:02:42.718Z,20.63
2018-08-06T18:05:12.694Z,20.61
2018-08-06T18:07:40.840Z,20.59
2018-08-06T18:10:10.053Z,20.55
2018-08-06T18:12:37.721Z,20.54
2018-08-06T18:15:06.009Z,20.51
2018-08-06T18:17:33.792Z,20.47
2018-08-06T18:20:01.587Z,20.44
2018-08-06T18:22:29.440Z,20.42
2018-08-06T18:24:57.209Z,20.40
2018-08-06T18:27:25.033Z,20.37
2018-08-06T18:29:52.831Z,20.35
2018-08-06T18:32:20.571Z,20.32
2018-08-06T18:34:48.336Z,20.29
2018-08-06T18:37:16.324Z,20.25
2018-08-06T18:39:44.018Z,20.21
2018-08-06T18:42:11.793Z,20.16
2018-08-06T18:44:39.941Z,20.13
2018-08-06T18:47:07.662Z,20.10
2018-08-06T18:49:35.387Z,20.07
2018-08-06T18:52:03.560Z,20.03
2018-08-06T18:54:32.031Z,20.00
2018-08-06T18:56:59.708Z,19.97
2018-08-06T18:59:27.760Z,19.94
2018-08-06T19:01:55.386Z,19.92
2018-08-06T19:04:23.107Z,19.89
2018-08-06T19:06:50.917Z,19.86
2018-08-06T19:09:18.983Z,19.83
2018-08-06T19:11:47.039Z,19.80
2018-08-06T19:14:21.330Z,19.78
2018-08-06T19:16:50.258Z,19.75
2018-08-06T19:19:21.847Z,19.71
2018-08-06T19:21:50.136Z,19.69
2018-08-06T19:24:23.537Z,19.68
2018-08-06T19:26:51.366Z,19.64
2018-08-06T19:29:18.998Z,19.61
2018-08-06T19:31:46.692Z,19.58
2018-08-06T19:34:14.645Z,19.56
2018-08-06T19:36:47.906Z,19.55
2018-08-06T19:39:15.761Z,19.51
2018-08-06T19:41:43.557Z,19.48
2018-08-06T19:44:11.167Z,19.46
2018-08-06T19:46:39.293Z,19.43
2018-08-06T19:49:12.727Z,19.43
2018-08-06T19:51:40.583Z,19.39
2018-08-06T19:54:08.323Z,19.38
2018-08-06T19:56:36.055Z,19.35
2018-08-06T19:59:03.893Z,19.32
2018-08-06T20:01:31.561Z,19.30
2018-08-06T20:03:59.192Z,19.28
2018-08-06T20:06:27.106Z,19.26
2018-08-06T20:08:54.793Z,19.24
2018-08-06T20:11:22.533Z,19.20
2018-08-06T20:13:50.408Z,19.18
2018-08-06T20:16:18.065Z,19.17
2018-08-06T20:18:45.740Z,19.15
2018-08-06T20:21:13.434Z,19.13
2018-08-06T20:23:41.102Z,19.11
2018-08-06T20:26:08.662Z,19.08
2018-08-06T20:28:36.416Z,19.05
2018-08-06T20:31:04.089Z,19.01
2018-08-06T20:33:31.770Z,18.98
2018-08-06T20:35:59.587Z,18.94
2018-08-06T20:38:27.248Z,18.94
2018-08-06T20:40:54.902Z,18.93
2018-08-06T20:43:22.569Z,18.90
2018-08-06T20:45:50.263Z,18.89
2018-08-06T20:48:18.052Z,18.87
2018-08-06T20:50:45.788Z,18.84
2018-08-06T20:53:13.371Z,18.83
2018-08-06T20:55:40.999Z,18.82
2018-08-06T20:58:08.801Z,18.78
2018-08-06T21:00:36.433Z,18.76
2018-08-06T21:03:04.286Z,18.72
2018-08-06T21:05:31.981Z,18.69
2018-08-06T21:07:59.651Z,18.66
2018-08-06T21:10:27.377Z,18.62
2018-08-06T21:12:55.119Z,18.58
2018-08-06T21:15:22.834Z,18.56
2018-08-06T21:17:50.429Z,18.53
2018-08-06T21:20:18.870Z,18.50
2018-08-06T21:22:47.639Z,18.48
2018-08-06T21:25:15.485Z,18.46
2018-08-06T21:27:44.317Z,18.43
2018-08-06T21:30:14.752Z,18.41
2018-08-06T21:32:45.584Z,18.38
2018-08-06T21:35:13.418Z,18.35
2018-08-06T21:37:41.954Z,18.33
2018-08-06T21:40:09.753Z,18.29
2018-08-06T21:42:37.615Z,18.26
2018-08-06T21:45:05.429Z,18.20
2018-08-06T21:47:33.171Z,18.18
2018-08-06T21:50:01.027Z,18.14
2018-08-06T21:52:28.722Z,18.10
2018-08-06T21:54:56.558Z,18.07
2018-08-06T21:57:24.153Z,18.04
2018-08-06T21:59:51.753Z,18.03
2018-08-06T22:02:19.663Z,18.01
2018-08-06T22:04:47.599Z,17.98
2018-08-06T22:07:15.322Z,17.94
2018-08-06T22:09:43.105Z,17.91
2018-08-06T22:12:10.785Z,17.88
2018-08-06T22:14:38.425Z,17.84
2018-08-06T22:17:06.436Z,17.80
2018-08-06T22:19:34.109Z,17.77
2018-08-06T22:22:01.807Z,17.74
2018-08-06T22:24:29.544Z,17.70
2018-08-06T22:26:57.271Z,17.66
2018-08-06T22:29:25.024Z,17.62
2018-08-06T22:31:52.960Z,17.58
2018-08-06T22:34:20.772Z,17.54
2018-08-06T22:36:48.370Z,17.50
2018-08-06T22:39:16.057Z,17.45
2018-08-06T22:41:43.702Z,17.40
2018-08-06T22:44:11.318Z,17.36
2018-08-06T22:46:38.975Z,17.31
2018-08-06T22:49:06.642Z,17.24
2018-08-06T22:51:34.470Z,17.18
2018-08-06T22:54:02.246Z,17.14
2018-08-06T22:56:29.953Z,17.09
2018-08-06T22:58:57.563Z,17.04
2018-08-06T23:01:25.470Z,17.02
2018-08-06T23:03:53.167Z,16.98
2018-08-06T23:06:20.841Z,16.93
2018-08-06T23:08:48.973Z,16.88
2018-08-06T23:11:16.672Z,16.84
2018-08-06T23:13:44.328Z,16.79
2018-08-06T23:16:12.276Z,16.76
2018-08-06T23:18:39.902Z,16.71
2018-08-06T23:21:07.494Z,16.65
2018-08-06T23:23:35.322Z,16.61
2018-08-06T23:26:03.034Z,16.57
2018-08-06T23:28:30.668Z,16.53
2018-08-06T23:30:58.555Z,16.51
2018-08-06T23:33:26.163Z,16.47
2018-08-06T23:35:53.815Z,16.43
2018-08-06T23:38:21.833Z,16.39
2018-08-06T23:40:49.406Z,16.34
2018-08-06T23:43:17.100Z,16.31
2018-08-06T23:45:44.753Z,16.26
2018-08-06T23:48:12.330Z,16.23
2018-08-06T23:50:40.007Z,16.21
2018-08-06T23:53:08.184Z,16.18
2018-08-06T23:55:35.855Z,16.14
2018-08-06T23:58:03.461Z,16.12
